Time,TemperatureF,DewpointF,PressureIn,WindDirection,WindDirectionDegrees,WindSpeedMPH,WindSpeedGustMPH,Humidity,HourlyPrecipIn,Conditions,Clouds,dailyrainin,SoftwareType,DateUTC
2013-09-18 00:01:00,49.4,40.8,30.01,SSW,202,2.2,2.7,72,0.00,,,0.00,WUHU21623XXSP,2013-09-18 04:01:00,
2013-09-18 00:02:00,49.4,40.8,30.01,SSW,202,2.2,2.7,72,0.00,,,0.00,WUHU21623XXSP,2013-09-18 04:02:00,
2013-09-18 00:07:00,49.2,40.6,30.01,SSW,202,1.6,2.2,72,0.00,,,0.00,WUHU21623XXSP,2013-09-18 04:07:00,
2013-09-18 00:12:00,49.2,40.6,30.01,SW,225,0.0,1.6,72,0.00,,,0.00,WUHU21623XXSP,2013-09-18 04:12:00,
2013-09-18 00:17:00,49.2,41.0,30.00,SW,225,0.0,0.0,73,0.00,,,0.00,WUHU21623XXSP,2013-09-18 04:17:00,
2013-09-18 15:26:00,73.2,55.7,29.83,South,180,9.2,9.2,54,0.00,,,0.00,WUHU21623XXSP,2013-09-18 19:26:00,
2013-09-18 15:31:00,73.3,55.3,29.83,SSW,202,0.0,9.2,53,0.00,,,0.00,WUHU21623XXSP,2013-09-18 19:31:00,
2013-09-18 15:43:00,73.3,55.3,29.83,South,180,0.0,0.0,53,0.00,,,0.00,WUHU21623XXSP,2013-09-18 19:43:00,
2013-09-18 15:48:00,73.3,55.3,29.83,SW,225,6.7,6.7,53,0.00,,,0.00,WUHU21623XXSP,2013-09-18 19:48:00,
2013-09-18 16:05:00,73.3,55.3,29.82,SE,135,4.7,4.7,53,0.00,,,0.00,WUHU21623XXSP,2013-09-18 20:05:00,
2013-09-18 16:11:00,73.3,55.3,29.82,SSW,202,9.6,9.6,53,0.00,,,0.00,WUHU21623XXSP,2013-09-18 20:11:00,
2013-09-18 16:20:00,73.3,54.7,29.82,SSW,202,0.0,9.6,52,0.00,,,0.00,WUHU21623XXSP,2013-09-18 20:20:00,
2013-09-18 16:28:00,73.2,54.6,29.82,South,180,0.0,0.0,52,0.00,,,0.00,WUHU21623XXSP,2013-09-18 20:28:00,
2013-09-18 16:35:00,73.0,55.0,29.82,South,180,0.0,0.0,53,0.00,,,0.00,WUHU21623XXSP,2013-09-18 20:35:00,
2013-09-18 16:41:00,73.0,55.0,29.82,SSE,157,0.0,0.0,53,0.00,,,0.00,WUHU21623XXSP,2013-09-18 20:41:00,
2013-09-18 16:46:00,73.0,55.0,29.82,SSW,202,0.0,0.0,53,0.00,,,0.00,WUHU21623XXSP,2013-09-18 20:46:00,
2013-09-18 16:52:00,73.0,54.4,29.81,South,180,0.9,0.9,52,0.00,,,0.00,WUHU21623XXSP,2013-09-18 20:52:00,
2013-09-18 17:04:00,72.4,54.4,29.81,SSW,202,14.5,14.5,53,0.00,,,0.00,WUHU21623XXSP,2013-09-18 21:04:00,
2013-09-18 17:09:00,72.1,53.6,29.81,SSW,202,4.7,14.5,52,0.00,,,0.00,WUHU21623XXSP,2013-09-18 21:09:00,
2013-09-18 17:15:00,72.1,54.1,29.81,South,180,0.0,4.7,53,0.00,,,0.00,WUHU21623XXSP,2013-09-18 21:15:00,
2013-09-18 17:19:00,72.3,54.3,29.81,SW,225,2.5,2.5,53,0.00,,,0.00,WUHU21623XXSP,2013-09-18 21:19:00,
2013-09-18 17:25:00,72.1,54.1,29.81,SSE,157,0.0,2.5,53,0.00,,,0.00,WUHU21623XXSP,2013-09-18 21:25:00,
2013-09-18 17:32:00,72.3,54.3,29.81,SSW,202,0.0,0.0,53,0.00,,,0.00,WUHU21623XXSP,2013-09-18 21:32:00,
2013-09-18 17:37:00,72.3,54.3,29.81,SE,135,0.0,0.0,53,0.00,,,0.00,WUHU21623XXSP,2013-09-18 21:37:00,
2013-09-18 17:42:00,72.3,54.3,29.81,SSW,202,6.7,6.7,53,0.00,,,0.00,WUHU21623XXSP,2013-09-18 21:42:00,
2013-09-18 17:47:00,72.1,54.1,29.81,SSW,202,0.9,6.7,53,0.00,,,0.00,WUHU21623XXSP,2013-09-18 21:47:00,
2013-09-18 17:52:00,71.9,54.5,29.81,South,180,8.5,8.5,54,0.00,,,0.00,WUHU21623XXSP,2013-09-18 21:52:00,
2013-09-18 17:57:00,71.7,54.3,29.80,SSW,202,0.0,8.5,54,0.00,,,0.00,WUHU21623XXSP,2013-09-18 21:57:00,
2013-09-18 18:02:00,71.7,54.3,29.81,SSW,202,0.0,0.0,54,0.00,,,0.00,WUHU21623XXSP,2013-09-18 22:02:00,
2013-09-18 18:09:00,71.5,54.1,29.80,South,180,0.0,0.0,54,0.00,,,0.00,WUHU21623XXSP,2013-09-18 22:09:00,
2013-09-18 18:14:00,71.5,54.1,29.80,SSW,202,0.0,0.0,54,0.00,,,0.00,WUHU21623XXSP,2013-09-18 22:14:00,
2013-09-18 18:19:00,71.2,54.3,29.79,SSW,202,0.0,0.0,55,0.00,,,0.00,WUHU21623XXSP,2013-09-18 22:19:00,
2013-09-18 18:24:00,71.2,54.3,29.80,SSW,202,1.8,1.8,55,0.00,,,0.00,WUHU21623XXSP,2013-09-18 22:24:00,
2013-09-18 18:29:00,71.0,54.2,29.79,SSW,202,3.4,3.4,55,0.00,,,0.00,WUHU21623XXSP,2013-09-18 22:29:00,
2013-09-18 18:34:00,70.8,54.0,29.80,SSW,202,3.4,3.4,55,0.00,,,0.00,WUHU21623XXSP,2013-09-18 22:34:00,
2013-09-18 18:39:00,70.6,54.3,29.80,SSW,202,0.0,3.4,56,0.00,,,0.00,WUHU21623XXSP,2013-09-18 22:39:00,
2013-09-18 18:44:00,70.5,54.2,29.79,South,180,0.0,0.0,56,0.00,,,0.00,WUHU21623XXSP,2013-09-18 22:44:00,
2013-09-18 18:49:00,70.3,54.5,29.80,SSW,202,0.0,0.0,57,0.00,,,0.00,WUHU21623XXSP,2013-09-18 22:49:00,
2013-09-18 18:55:00,69.9,54.1,29.80,SSW,202,2.0,2.0,57,0.00,,,0.00,WUHU21623XXSP,2013-09-18 22:55:00,
2013-09-18 19:00:00,69.7,53.9,29.80,SW,225,1.8,2.0,57,0.00,,,0.00,WUHU21623XXSP,2013-09-18 23:00:00,
2013-09-18 19:05:00,69.4,54.1,29.81,SW,225,1.8,1.8,58,0.00,,,0.00,WUHU21623XXSP,2013-09-18 23:05:00,
2013-09-18 19:10:00,69.2,54.0,29.80,SSW,202,0.0,1.8,58,0.00,,,0.00,WUHU21623XXSP,2013-09-18 23:10:00,
2013-09-18 19:15:00,69.0,53.8,29.81,SSW,202,0.0,0.0,58,0.00,,,0.00,WUHU21623XXSP,2013-09-18 23:15:00,
2013-09-18 19:21:00,68.7,54.0,29.81,South,180,0.0,0.0,59,0.00,,,0.00,WUHU21623XXSP,2013-09-18 23:21:00,
2013-09-18 19:26:00,68.1,53.4,29.81,South,180,0.0,0.0,59,0.00,,,0.00,WUHU21623XXSP,2013-09-18 23:26:00,
2013-09-18 19:31:00,67.9,53.7,29.80,South,180,0.0,0.0,60,0.00,,,0.00,WUHU21623XXSP,2013-09-18 23:31:00,
2013-09-18 19:36:00,67.4,53.2,29.80,South,180,0.0,0.0,60,0.00,,,0.00,WUHU21623XXSP,2013-09-18 23:36:00,
2013-09-18 19:41:00,67.2,53.5,29.80,South,180,0.0,0.0,61,0.00,,,0.00,WUHU21623XXSP,2013-09-18 23:41:00,
2013-09-18 19:46:00,66.9,53.2,29.80,South,180,0.0,0.0,61,0.00,,,0.00,WUHU21623XXSP,2013-09-18 23:46:00,
2013-09-18 19:51:00,66.7,53.0,29.80,SSW,202,1.1,1.1,61,0.00,,,0.00,WUHU21623XXSP,2013-09-18 23:51:00,
2013-09-18 19:56:00,66.3,53.1,29.80,SSW,202,0.0,1.1,62,0.00,,,0.00,WUHU21623XXSP,2013-09-18 23:56:00,
2013-09-18 20:01:00,66.1,53.3,29.80,SSW,202,0.0,0.0,63,0.00,,,0.00,WUHU21623XXSP,2013-09-19 00:01:00,
2013-09-18 20:06:00,65.8,53.0,29.80,SSW,202,0.0,0.0,63,0.00,,,0.00,WUHU21623XXSP,2013-09-19 00:06:00,
2013-09-18 20:12:00,65.4,52.6,29.80,SW,225,0.0,0.0,63,0.00,,,0.00,WUHU21623XXSP,2013-09-19 00:12:00,
2013-09-18 20:17:00,65.1,52.8,29.81,WSW,247,0.0,0.0,64,0.00,,,0.00,WUHU21623XXSP,2013-09-19 00:17:00,
2013-09-18 20:24:00,64.9,52.6,29.81,SSW,202,0.0,0.0,64,0.00,,,0.00,WUHU21623XXSP,2013-09-19 00:24:00,
2013-09-18 20:29:00,64.7,52.4,29.80,SSW,202,0.0,0.0,64,0.00,,,0.00,WUHU21623XXSP,2013-09-19 00:29:00,
2013-09-18 20:34:00,64.5,52.2,29.81,SSW,202,0.0,0.0,64,0.00,,,0.00,WUHU21623XXSP,2013-09-19 00:34:00,
2013-09-18 20:39:00,64.5,52.6,29.81,SSW,202,0.0,0.0,65,0.00,,,0.00,WUHU21623XXSP,2013-09-19 00:39:00,
2013-09-18 20:44:00,64.3,52.4,29.81,SSW,202,0.0,0.0,65,0.00,,,0.00,WUHU21623XXSP,2013-09-19 00:44:00,
2013-09-18 20:49:00,64.2,52.4,29.81,South,180,0.0,0.0,65,0.00,,,0.00,WUHU21623XXSP,2013-09-19 00:49:00,
2013-09-18 20:56:00,64.0,52.2,29.81,SSW,202,0.0,0.0,65,0.00,,,0.00,WUHU21623XXSP,2013-09-19 00:56:00,
2013-09-18 21:01:00,64.0,52.2,29.81,SW,225,0.0,0.0,65,0.00,,,0.00,WUHU21623XXSP,2013-09-19 01:01:00,
2013-09-18 21:06:00,63.8,52.0,29.81,South,180,0.0,0.0,65,0.00,,,0.00,WUHU21623XXSP,2013-09-19 01:06:00,
2013-09-18 21:11:00,63.8,52.0,29.81,SSE,157,0.0,0.0,65,0.00,,,0.00,WUHU21623XXSP,2013-09-19 01:11:00,
2013-09-18 21:16:00,63.8,52.0,29.81,SSE,157,0.0,0.0,65,0.00,,,0.00,WUHU21623XXSP,2013-09-19 01:16:00,
2013-09-18 21:21:00,63.6,51.8,29.81,South,180,0.0,0.0,65,0.00,,,0.00,WUHU21623XXSP,2013-09-19 01:21:00,
2013-09-18 21:26:00,63.6,51.8,29.82,SSE,157,0.0,0.0,65,0.00,,,0.00,WUHU21623XXSP,2013-09-19 01:26:00,
2013-09-18 21:31:00,63.6,51.8,29.81,SSW,202,0.0,0.0,65,0.00,,,0.00,WUHU21623XXSP,2013-09-19 01:31:00,
2013-09-18 21:38:00,63.6,51.8,29.81,SSW,202,0.0,0.0,65,0.00,,,0.00,WUHU21623XXSP,2013-09-19 01:38:00,
2013-09-18 21:58:00,63.8,52.0,29.81,South,180,0.0,0.0,65,0.00,,,0.00,WUHU21623XXSP,2013-09-19 01:58:00,
2013-09-18 22:06:00,63.6,51.8,29.82,South,180,0.0,0.0,65,0.00,,,0.00,WUHU21623XXSP,2013-09-19 02:06:00,
2013-09-18 22:11:00,63.6,51.8,29.81,SSW,202,0.0,0.0,65,0.00,,,0.00,WUHU21623XXSP,2013-09-19 02:11:00,
2013-09-18 22:16:00,63.6,52.2,29.81,SSW,202,0.0,0.0,66,0.00,,,0.00,WUHU21623XXSP,2013-09-19 02:16:00,
2013-09-18 22:23:00,63.6,52.2,29.82,South,180,0.0,0.0,66,0.00,,,0.00,WUHU21623XXSP,2013-09-19 02:23:00,
2013-09-18 22:30:00,63.6,52.2,29.81,SW,225,0.0,0.0,66,0.00,,,0.00,WUHU21623XXSP,2013-09-19 02:30:00,
2013-09-18 22:35:00,63.6,52.2,29.82,SW,225,0.0,0.0,66,0.00,,,0.00,WUHU21623XXSP,2013-09-19 02:35:00,
2013-09-18 22:45:00,63.6,52.2,29.81,SW,225,0.0,0.0,66,0.00,,,0.00,WUHU21623XXSP,2013-09-19 02:45:00,
2013-09-18 22:51:00,63.4,52.0,29.81,SW,225,0.0,0.0,66,0.00,,,0.00,WUHU21623XXSP,2013-09-19 02:51:00,
2013-09-18 23:02:00,63.1,52.1,29.81,SW,225,1.8,1.8,67,0.00,,,0.00,WUHU21623XXSP,2013-09-19 03:02:00,
2013-09-18 23:07:00,63.1,52.5,29.81,South,180,0.0,1.8,68,0.00,,,0.00,WUHU21623XXSP,2013-09-19 03:07:00,
2013-09-18 23:12:00,62.7,52.1,29.81,SSE,157,0.0,0.0,68,0.00,,,0.00,WUHU21623XXSP,2013-09-19 03:12:00,
2013-09-18 23:17:00,62.7,52.1,29.81,West,270,0.0,0.0,68,0.00,,,0.00,WUHU21623XXSP,2013-09-19 03:17:00,
2013-09-18 23:22:00,62.7,52.1,29.81,South,180,0.0,0.0,68,0.00,,,0.00,WUHU21623XXSP,2013-09-19 03:22:00,
2013-09-18 23:27:00,62.5,52.3,29.81,NNW,337,0.0,0.0,69,0.00,,,0.00,WUHU21623XXSP,2013-09-19 03:27:00,
2013-09-18 23:38:00,62.2,52.1,29.81,SW,225,0.0,0.0,69,0.00,,,0.00,WUHU21623XXSP,2013-09-19 03:38:00,